Steger, Illinois
Current Conditions -  °F | °C
As of 10:35 AM on Wednesday 26 Nov 2014 (Local Time) from KIGQ Reporting Station
Overcast Overcast  
Wind Chill: 26°   Ceiling: 1400
Heat Index: 26°   Visibility: 10mi
Dew Point: 20°   Wind: 3mph
Humidity: 80%   Direction: 150°SSE
Pressure: 30.16"   Gusts: NA
Location:  41.47°N, 87.64°W
Report Text: KIGQ 261635Z AUTO 15003KT 10SM OVC014 M04/M07 A3016 RMK AO2 T10361066
Loading
Personal Weather Stations






























Interactive Weather Map New forecast layout! Learn more

10-Day Weather Forecast

Advertisements
Track Severe Weather on mobile